createdAt,value
2022-11-24T00:34:56.321Z,5.87
2022-11-24T00:50:27.486Z,5.71
2022-11-24T00:53:27.801Z,5.80
2022-11-24T00:56:03.518Z,5.80
2022-11-24T01:12:02.239Z,5.73
2022-11-24T01:14:29.381Z,5.78
2022-11-24T01:16:56.216Z,5.74
2022-11-24T01:19:24.039Z,5.76
2022-11-24T01:21:52.179Z,5.71
2022-11-24T01:24:19.050Z,5.78
2022-11-24T01:26:46.515Z,5.78
2022-11-24T01:29:13.189Z,5.87
2022-11-24T01:31:40.680Z,6.00
2022-11-24T01:34:07.807Z,6.10
2022-11-24T01:36:34.967Z,6.20
2022-11-24T01:39:02.705Z,6.21
2022-11-24T01:41:29.561Z,6.24
2022-11-24T01:44:00.776Z,6.31
2022-11-24T01:46:32.794Z,6.34
2022-11-24T01:49:11.852Z,6.38
2022-11-24T01:51:50.827Z,6.41
2022-11-24T01:54:27.933Z,6.45
2022-11-24T01:57:00.615Z,6.59
2022-11-24T01:59:27.685Z,6.71
2022-11-24T02:01:56.269Z,6.79
2022-11-24T02:04:28.935Z,6.86
2022-11-24T02:06:59.866Z,6.97
2022-11-24T02:09:40.756Z,7.05
2022-11-24T02:12:11.665Z,7.03
2022-11-24T02:14:41.229Z,7.08
2022-11-24T02:17:08.855Z,7.14
2022-11-24T02:19:53.899Z,7.17
2022-11-24T02:22:48.180Z,7.17
2022-11-24T02:25:37.129Z,7.21
2022-11-24T02:28:08.710Z,7.28
2022-11-24T02:30:36.243Z,7.30
2022-11-24T02:33:03.328Z,7.34
2022-11-24T02:35:30.071Z,7.42
2022-11-24T02:37:57.017Z,7.44
2022-11-24T02:40:27.271Z,7.52
2022-11-24T02:43:05.495Z,7.55
2022-11-24T02:45:32.834Z,7.59
2022-11-24T02:47:59.592Z,7.61
2022-11-24T02:50:26.806Z,7.58
2022-11-24T02:52:53.670Z,7.59
2022-11-24T02:55:20.926Z,7.52
2022-11-24T02:57:47.742Z,7.51
2022-11-24T03:00:15.362Z,7.51
2022-11-24T03:02:42.208Z,7.50
2022-11-24T03:05:16.800Z,7.51
2022-11-24T03:07:46.708Z,7.51
2022-11-24T03:10:13.959Z,7.54
2022-11-24T03:12:40.868Z,7.51
2022-11-24T03:15:08.460Z,7.51
2022-11-24T03:17:35.448Z,7.52
2022-11-24T03:20:04.935Z,7.51
2022-11-24T03:22:40.144Z,7.51
2022-11-24T03:25:07.200Z,7.52
2022-11-24T03:27:39.263Z,7.51
2022-11-24T03:30:07.248Z,7.52
2022-11-24T03:32:34.295Z,7.45
2022-11-24T03:35:04.310Z,7.42
2022-11-24T03:37:34.214Z,7.41
2022-11-24T03:40:01.255Z,7.47
2022-11-24T03:42:28.000Z,7.44
2022-11-24T03:44:54.808Z,7.45
2022-11-24T03:47:21.521Z,7.45
2022-11-24T03:49:48.558Z,7.50
2022-11-24T03:52:15.475Z,7.47
2022-11-24T03:54:45.251Z,7.42
2022-11-24T03:57:12.230Z,7.45
2022-11-24T03:59:39.328Z,7.50
2022-11-24T04:02:06.051Z,7.54
2022-11-24T04:04:40.234Z,7.55
2022-11-24T04:07:07.234Z,7.62
2022-11-24T04:09:34.101Z,7.66
2022-11-24T04:12:19.567Z,7.69
2022-11-24T04:14:46.369Z,7.72
2022-11-24T04:17:19.260Z,7.76
2022-11-24T04:19:46.177Z,7.76
2022-11-24T04:22:13.204Z,7.83
2022-11-24T04:24:40.055Z,7.85
2022-11-24T04:27:06.903Z,7.87
2022-11-24T04:29:35.085Z,7.89
2022-11-24T04:34:39.471Z,7.96
2022-11-24T04:37:06.769Z,7.99
2022-11-24T04:39:33.828Z,8.03
2022-11-24T04:42:00.962Z,7.96
2022-11-24T04:44:27.891Z,8.00
2022-11-24T04:46:54.794Z,8.03
2022-11-24T04:49:21.566Z,8.02
2022-11-24T04:51:48.384Z,8.06
2022-11-24T04:54:15.642Z,8.02
2022-11-24T04:56:44.342Z,8.04
2022-11-24T04:59:15.190Z,8.09
2022-11-24T05:01:43.285Z,8.04
2022-11-24T05:04:13.191Z,8.06
2022-11-24T05:06:40.490Z,8.09
2022-11-24T05:09:08.213Z,8.07
2022-11-24T05:11:35.020Z,8.07
2022-11-24T05:14:02.184Z,8.10
2022-11-24T05:16:29.200Z,8.10
2022-11-24T05:18:56.263Z,8.10
2022-11-24T05:21:23.730Z,8.14
2022-11-24T05:23:50.449Z,8.20
2022-11-24T05:26:17.426Z,8.26
2022-11-24T05:28:44.160Z,8.26
2022-11-24T05:31:11.087Z,8.19
2022-11-24T05:33:38.453Z,8.19
2022-11-24T05:36:07.506Z,8.19
2022-11-24T05:38:34.434Z,8.17
2022-11-24T05:41:05.468Z,8.19
2022-11-24T05:43:32.523Z,8.20
2022-11-24T05:46:00.688Z,8.22
2022-11-24T05:48:28.267Z,8.20
2022-11-24T05:50:56.806Z,8.14
2022-11-24T05:53:24.367Z,8.19
2022-11-24T05:55:51.315Z,8.38
2022-11-24T05:58:18.332Z,8.37
2022-11-24T06:00:45.079Z,8.57
2022-11-24T06:03:12.833Z,8.71
2022-11-24T06:05:39.600Z,8.81
2022-11-24T06:08:06.242Z,8.92
2022-11-24T06:10:33.024Z,9.06
2022-11-24T06:12:59.818Z,9.01
2022-11-24T06:15:26.608Z,9.01
2022-11-24T06:17:56.672Z,9.15
2022-11-24T06:20:29.738Z,9.09
2022-11-24T06:22:59.295Z,9.09
2022-11-24T06:25:26.465Z,9.11
2022-11-24T06:27:56.456Z,9.08
2022-11-24T06:30:23.436Z,8.98
2022-11-24T06:32:54.876Z,8.98
2022-11-24T06:35:21.600Z,8.91
2022-11-24T06:37:48.498Z,8.96
2022-11-24T06:40:15.301Z,8.92
2022-11-24T06:42:41.953Z,8.95
2022-11-24T06:45:09.806Z,8.88
2022-11-24T06:47:36.831Z,8.95
2022-11-24T06:50:03.948Z,9.06
2022-11-24T06:52:30.778Z,8.93
2022-11-24T06:54:57.591Z,8.89
2022-11-24T06:57:24.398Z,8.79
2022-11-24T06:59:51.358Z,8.72
2022-11-24T07:02:18.116Z,8.64
2022-11-24T07:04:44.689Z,8.62
2022-11-24T07:07:11.504Z,8.61
2022-11-24T07:09:38.396Z,8.64
2022-11-24T07:12:06.064Z,8.67
2022-11-24T07:14:33.303Z,8.57
2022-11-24T07:17:02.612Z,8.47
2022-11-24T07:19:29.620Z,8.57
2022-11-24T07:21:56.798Z,8.51
2022-11-24T07:24:23.494Z,8.47
2022-11-24T07:26:50.629Z,8.64
2022-11-24T07:33:36.355Z,8.65
2022-11-24T07:36:04.432Z,8.65
2022-11-24T07:38:33.823Z,8.62
2022-11-24T07:41:02.340Z,8.64
2022-11-24T07:46:20.322Z,8.75
2022-11-24T07:48:47.755Z,8.69
2022-11-24T07:51:15.670Z,8.69
2022-11-24T07:53:42.307Z,8.82
2022-11-24T07:56:09.894Z,8.75
2022-11-24T07:58:37.776Z,8.83
2022-11-24T08:01:15.843Z,8.79
2022-11-24T08:03:43.348Z,8.79
2022-11-24T08:06:29.050Z,8.88
2022-11-24T08:08:57.240Z,8.92
2022-11-24T08:11:24.416Z,8.98
2022-11-24T08:13:51.299Z,9.01
2022-11-24T08:16:19.501Z,9.02
2022-11-24T08:18:54.174Z,9.20
2022-11-24T08:21:23.342Z,9.22
2022-11-24T08:23:54.339Z,9.23
2022-11-24T08:26:23.922Z,9.26
2022-11-24T08:28:56.501Z,9.32
2022-11-24T08:31:23.174Z,9.30
2022-11-24T08:33:49.790Z,9.27
2022-11-24T08:36:19.184Z,9.36
2022-11-24T08:38:46.139Z,9.37
2022-11-24T08:41:16.942Z,9.37
2022-11-24T08:43:43.474Z,9.37
2022-11-24T08:46:12.562Z,9.44
2022-11-24T08:48:39.533Z,9.36
2022-11-24T08:51:08.533Z,9.46
2022-11-24T08:53:35.043Z,9.44
2022-11-24T08:56:02.308Z,9.44
2022-11-24T08:58:29.839Z,9.44
2022-11-24T09:01:03.257Z,9.50
2022-11-24T09:03:29.845Z,9.47
2022-11-24T09:05:56.305Z,9.50
2022-11-24T09:08:22.782Z,9.50
2022-11-24T09:10:49.382Z,9.54
2022-11-24T09:13:16.068Z,9.61
2022-11-24T09:15:42.645Z,9.67
2022-11-24T09:18:09.107Z,9.73
2022-11-24T09:20:35.588Z,9.71
2022-11-24T09:23:02.166Z,9.74
2022-11-24T09:25:28.656Z,9.81
2022-11-24T09:27:56.466Z,9.99
2022-11-24T09:30:23.449Z,9.92
2022-11-24T09:32:49.972Z,10.02
2022-11-24T09:35:16.530Z,10.03
2022-11-24T09:37:45.179Z,10.02
2022-11-24T09:40:16.480Z,10.05
2022-11-24T09:42:50.642Z,10.02
2022-11-24T09:46:03.436Z,10.02
2022-11-24T09:48:27.124Z,10.01
2022-11-24T09:50:54.034Z,10.11
2022-11-24T09:53:45.508Z,10.12
2022-11-24T09:56:24.164Z,10.48
2022-11-24T09:58:53.728Z,11.12
2022-11-24T10:01:26.255Z,11.48
2022-11-24T10:03:54.712Z,11.39
2022-11-24T10:06:27.243Z,11.56
2022-11-24T10:09:02.820Z,12.13
2022-11-24T10:11:38.058Z,12.76
2022-11-24T10:14:27.909Z,13.23
2022-11-24T10:17:28.365Z,12.52
2022-11-24T10:20:10.767Z,12.59
2022-11-24T10:23:15.123Z,13.17
2022-11-24T10:25:51.694Z,13.50
2022-11-24T10:28:18.179Z,13.47
2022-11-24T10:30:45.100Z,13.61
2022-11-24T10:33:30.645Z,13.86
2022-11-24T10:36:09.617Z,13.38
2022-11-24T10:38:48.802Z,13.57
2022-11-24T10:41:23.607Z,13.96
2022-11-24T10:43:52.344Z,13.64
2022-11-24T10:46:36.246Z,14.64
2022-11-24T10:49:06.189Z,14.33
2022-11-24T10:51:46.730Z,14.20
2022-11-24T10:54:31.644Z,14.17
2022-11-24T10:56:58.214Z,14.53
2022-11-24T10:59:24.774Z,14.37
2022-11-24T11:01:52.825Z,14.68
2022-11-24T11:04:33.195Z,14.61
2022-11-24T11:07:08.610Z,13.95
2022-11-24T11:09:35.300Z,13.99
2022-11-24T11:12:42.016Z,13.95
2022-11-24T11:14:57.036Z,14.68
2022-11-24T11:17:44.432Z,14.75
2022-11-24T11:20:19.670Z,14.40
2022-11-24T11:22:49.079Z,14.25
2022-11-24T11:25:19.114Z,14.63
2022-11-24T11:27:46.093Z,14.36
2022-11-24T11:36:11.253Z,15.15
2022-11-24T11:38:39.706Z,15.71
2022-11-24T11:41:13.971Z,15.39
2022-11-24T11:43:41.618Z,15.83
2022-11-24T11:46:08.238Z,15.16
2022-11-24T11:48:43.576Z,15.52
2022-11-24T11:51:25.918Z,14.88
2022-11-24T11:54:03.105Z,14.43
2022-11-24T11:56:34.013Z,14.47
2022-11-24T11:59:29.031Z,15.45
2022-11-24T12:02:07.619Z,15.22
2022-11-24T12:04:58.507Z,15.09
2022-11-24T12:07:36.465Z,15.14
2022-11-24T12:10:41.923Z,15.71
2022-11-24T12:13:32.300Z,15.40
2022-11-24T12:16:09.857Z,16.15
2022-11-24T12:21:30.452Z,15.39
2022-11-24T12:24:09.074Z,15.63
2022-11-24T12:26:44.727Z,14.75
2022-11-24T12:29:14.134Z,15.12
2022-11-24T12:32:11.806Z,14.83
2022-11-24T12:34:54.601Z,14.78
2022-11-24T12:37:30.195Z,14.08
2022-11-24T12:40:24.981Z,13.77
2022-11-24T12:43:15.429Z,14.68
2022-11-24T12:46:01.322Z,15.04
2022-11-24T12:48:27.736Z,14.71
2022-11-24T12:50:55.530Z,15.69
2022-11-24T12:53:27.197Z,15.32
2022-11-24T12:55:54.809Z,15.73
2022-11-24T12:58:43.257Z,15.63
2022-11-24T13:01:22.790Z,15.52
2022-11-24T13:04:11.877Z,15.54
2022-11-24T13:06:51.672Z,15.60
2022-11-24T13:09:18.509Z,16.00
2022-11-24T13:11:47.101Z,16.13
2022-11-24T13:14:16.810Z,16.58
2022-11-24T13:20:22.278Z,15.14
2022-11-24T13:22:54.060Z,14.54
2022-11-24T13:25:22.572Z,14.83
2022-11-24T13:27:53.758Z,14.60
2022-11-24T13:30:45.219Z,14.80
2022-11-24T13:33:16.004Z,15.32
2022-11-24T13:36:04.270Z,15.67
2022-11-24T13:38:39.735Z,15.96
2022-11-24T13:41:30.571Z,16.21
2022-11-24T13:44:15.207Z,16.25
2022-11-24T13:47:04.733Z,15.28
2022-11-24T13:49:43.246Z,15.54
2022-11-24T13:52:34.690Z,15.39
2022-11-24T13:55:10.015Z,15.86
2022-11-24T13:57:46.785Z,15.21
2022-11-24T14:00:23.910Z,15.45
2022-11-24T14:03:02.192Z,15.87
2022-11-24T14:05:45.912Z,16.41
2022-11-24T14:08:21.925Z,16.46
2022-11-24T14:10:48.690Z,16.17
2022-11-24T14:13:24.331Z,15.05
2022-11-24T14:16:09.084Z,14.60
2022-11-24T14:18:40.568Z,14.80
2022-11-24T14:21:22.026Z,14.32
2022-11-24T14:23:52.512Z,14.53
2022-11-24T14:26:33.406Z,14.25
2022-11-24T14:29:05.998Z,14.13
2022-11-24T14:31:32.885Z,13.94
2022-11-24T14:34:11.489Z,13.99
2022-11-24T14:36:42.048Z,13.55
2022-11-24T14:39:13.918Z,13.50
2022-11-24T14:41:42.231Z,13.46
2022-11-24T14:44:08.776Z,13.48
2022-11-24T14:46:36.800Z,13.64
2022-11-24T14:49:03.607Z,13.67
2022-11-24T14:51:33.798Z,13.64
2022-11-24T14:54:03.146Z,13.84
2022-11-24T14:56:34.685Z,13.67
2022-11-24T14:59:01.379Z,13.33
2022-11-24T15:01:27.962Z,13.17
2022-11-24T15:07:27.267Z,12.45
2022-11-24T15:09:58.920Z,12.32
2022-11-24T15:12:34.333Z,12.22
2022-11-24T15:15:07.235Z,12.06
2022-11-24T15:17:34.414Z,11.97
2022-11-24T15:20:09.446Z,11.87
2022-11-24T15:22:37.247Z,11.73
2022-11-24T15:25:04.294Z,11.62
2022-11-24T15:27:30.902Z,11.58
2022-11-24T15:29:57.407Z,11.35
2022-11-24T15:32:24.038Z,11.31
2022-11-24T15:34:50.522Z,11.27
2022-11-24T15:37:17.083Z,11.19
2022-11-24T15:39:43.535Z,11.22
2022-11-24T15:42:12.202Z,11.08
2022-11-24T15:44:38.707Z,10.94
2022-11-24T15:47:05.487Z,10.91
2022-11-24T15:49:31.984Z,10.84
2022-11-24T15:51:58.544Z,10.74
2022-11-24T15:54:25.857Z,10.70
2022-11-24T15:56:52.592Z,10.74
2022-11-24T15:59:21.182Z,10.67
2022-11-24T16:01:49.653Z,10.67
2022-11-24T16:04:16.530Z,10.60
2022-11-24T16:06:43.221Z,10.55
2022-11-24T16:09:14.513Z,10.46
2022-11-24T16:11:41.169Z,10.34
2022-11-24T16:14:07.689Z,10.32
2022-11-24T16:16:34.322Z,10.42
2022-11-24T16:19:00.947Z,10.39
2022-11-24T16:21:27.411Z,10.57
2022-11-24T16:23:54.137Z,10.53
2022-11-24T16:26:20.735Z,10.46
2022-11-24T16:28:47.272Z,10.56
2022-11-24T16:31:16.031Z,10.43
2022-11-24T16:33:44.901Z,10.43
2022-11-24T16:36:11.953Z,10.33
2022-11-24T16:38:38.563Z,10.39
2022-11-24T16:41:05.344Z,10.43
2022-11-24T16:43:35.137Z,10.30
2022-11-24T16:46:14.334Z,10.42
2022-11-24T16:48:40.919Z,10.36
2022-11-24T16:51:10.081Z,10.32
2022-11-24T16:53:37.555Z,10.34
2022-11-24T16:56:04.582Z,10.23
2022-11-24T16:58:31.250Z,10.22
2022-11-24T17:01:06.374Z,10.11
2022-11-24T17:03:34.136Z,10.15
2022-11-24T17:06:00.909Z,10.11
2022-11-24T17:08:31.211Z,9.97
2022-11-24T17:10:58.174Z,9.91
2022-11-24T17:13:24.648Z,9.78
2022-11-24T17:15:54.131Z,9.73
2022-11-24T17:18:25.425Z,9.67
2022-11-24T17:20:52.172Z,9.63
2022-11-24T17:23:19.754Z,9.44
2022-11-24T17:25:46.531Z,9.34
2022-11-24T17:28:13.041Z,9.33
2022-11-24T17:30:39.530Z,9.27
2022-11-24T17:33:06.161Z,9.18
2022-11-24T17:35:35.940Z,9.13
2022-11-24T17:38:03.049Z,9.06
2022-11-24T17:40:30.255Z,9.05
2022-11-24T17:43:00.599Z,8.93
2022-11-24T17:45:28.393Z,8.83
2022-11-24T17:47:55.277Z,8.81
2022-11-24T17:50:25.707Z,8.76
2022-11-24T17:52:53.639Z,8.69
2022-11-24T17:55:20.124Z,8.71
2022-11-24T17:57:46.605Z,8.62
2022-11-24T18:00:13.740Z,8.60
2022-11-24T18:02:40.384Z,8.50
2022-11-24T18:05:07.177Z,8.50
2022-11-24T18:07:36.716Z,8.48
2022-11-24T18:10:04.384Z,8.43
2022-11-24T18:12:32.143Z,8.38
2022-11-24T18:14:58.671Z,8.31
2022-11-24T18:17:25.341Z,8.23
2022-11-24T18:19:51.841Z,8.23
2022-11-24T18:22:21.003Z,8.16
2022-11-24T18:24:52.426Z,8.23
2022-11-24T18:27:18.956Z,8.27
2022-11-24T18:29:45.767Z,8.27
2022-11-24T18:32:12.335Z,8.20
2022-11-24T18:34:38.911Z,8.27
2022-11-24T18:37:05.572Z,8.14
2022-11-24T18:39:32.088Z,8.10
2022-11-24T18:41:58.606Z,8.07
2022-11-24T18:44:25.214Z,8.03
2022-11-24T18:46:51.791Z,8.00
2022-11-24T18:49:18.297Z,8.00
2022-11-24T18:51:44.892Z,8.04
2022-11-24T18:58:41.045Z,7.89
2022-11-24T19:01:08.180Z,7.89
2022-11-24T19:03:42.307Z,7.85
2022-11-24T19:06:15.457Z,7.81
2022-11-24T19:08:42.333Z,7.83
2022-11-24T19:11:16.674Z,7.85
2022-11-24T19:13:43.289Z,7.90
2022-11-24T19:16:13.632Z,7.81
2022-11-24T19:18:40.290Z,7.76
2022-11-24T19:21:06.992Z,7.72
2022-11-24T19:23:33.478Z,7.66
2022-11-24T19:26:01.066Z,7.78
2022-11-24T19:28:27.592Z,7.75
2022-11-24T19:30:54.139Z,7.65
2022-11-24T19:33:21.568Z,7.69
2022-11-24T19:35:48.026Z,7.66
2022-11-24T19:38:15.279Z,7.61
2022-11-24T19:40:41.924Z,7.51
2022-11-24T19:43:08.419Z,7.51
2022-11-24T19:45:35.167Z,7.45
2022-11-24T19:48:02.051Z,7.50
2022-11-24T19:50:28.470Z,7.48
2022-11-24T19:52:54.957Z,7.42
2022-11-24T19:55:21.446Z,7.44
2022-11-24T19:57:48.045Z,7.36
2022-11-24T20:00:15.763Z,7.44
2022-11-24T20:02:42.388Z,7.34
2022-11-24T20:05:09.279Z,7.36
2022-11-24T20:07:35.803Z,7.31
2022-11-24T20:10:07.540Z,7.34
2022-11-24T20:12:34.745Z,7.34
2022-11-24T20:15:01.201Z,7.44
2022-11-24T20:17:30.199Z,7.56
2022-11-24T20:19:56.649Z,7.55
2022-11-24T20:22:23.129Z,7.52
2022-11-24T20:24:49.560Z,7.54
2022-11-24T20:27:16.061Z,7.48
2022-11-24T20:29:46.787Z,7.51
2022-11-24T20:32:19.330Z,7.42
2022-11-24T20:34:46.643Z,7.34
2022-11-24T20:37:13.714Z,7.24
2022-11-24T20:39:40.451Z,7.28
2022-11-24T20:42:07.419Z,7.25
2022-11-24T20:44:34.418Z,7.24
2022-11-24T20:47:02.927Z,7.25
2022-11-24T20:49:29.784Z,7.15
2022-11-24T20:51:57.377Z,7.07
2022-11-24T20:54:24.153Z,7.11
2022-11-24T20:56:50.650Z,7.13
2022-11-24T20:59:21.559Z,7.10
2022-11-24T21:01:50.788Z,7.11
2022-11-24T21:04:21.137Z,7.05
2022-11-24T21:06:48.468Z,6.97
2022-11-24T21:09:15.217Z,6.93
2022-11-24T21:11:42.379Z,6.94
2022-11-24T21:14:09.749Z,6.89
2022-11-24T21:16:38.044Z,6.79
2022-11-24T21:19:13.514Z,6.79
2022-11-24T21:21:42.573Z,6.77
2022-11-24T21:24:17.510Z,6.79
2022-11-24T21:26:47.999Z,6.76
2022-11-24T21:29:17.377Z,6.83
2022-11-24T21:31:43.987Z,6.80
2022-11-24T21:34:15.242Z,6.83
2022-11-24T21:36:45.171Z,6.90
2022-11-24T21:39:13.931Z,6.84
2022-11-24T21:41:41.362Z,6.93
2022-11-24T21:44:08.056Z,6.97
2022-11-24T21:46:43.564Z,6.96
2022-11-24T21:49:13.275Z,6.90
2022-11-24T21:51:39.851Z,6.93
2022-11-24T21:54:06.856Z,6.93
2022-11-24T21:56:33.470Z,6.94
2022-11-24T21:58:59.944Z,6.94
2022-11-24T22:01:28.637Z,6.99
2022-11-24T22:03:55.570Z,7.07
2022-11-24T22:06:22.411Z,7.08
2022-11-24T22:08:50.146Z,7.04
2022-11-24T22:11:25.897Z,7.15
2022-11-24T22:13:53.138Z,7.20
2022-11-24T22:16:21.863Z,7.24
2022-11-24T22:18:48.517Z,7.24
2022-11-24T22:21:20.139Z,7.27
2022-11-24T22:23:50.339Z,7.28
2022-11-24T22:26:19.254Z,7.31
2022-11-24T22:28:46.331Z,7.35
2022-11-24T22:31:18.155Z,7.27
2022-11-24T22:33:45.204Z,7.30
2022-11-24T22:36:13.507Z,7.35
2022-11-24T22:38:40.513Z,7.27
2022-11-24T22:41:10.015Z,7.42
2022-11-24T22:43:38.115Z,7.47
2022-11-24T22:46:08.773Z,7.54
2022-11-24T22:48:35.587Z,7.59
2022-11-24T22:51:06.543Z,7.62
2022-11-24T22:53:33.273Z,7.66
2022-11-24T22:56:04.052Z,7.69
2022-11-24T22:58:33.014Z,7.79
2022-11-24T23:01:09.751Z,7.78
2022-11-24T23:03:36.963Z,7.86
2022-11-24T23:06:09.878Z,7.89
2022-11-24T23:08:36.851Z,7.99
2022-11-24T23:11:06.644Z,8.00
2022-11-24T23:13:33.660Z,8.04
2022-11-24T23:16:21.295Z,8.10
2022-11-24T23:18:52.342Z,8.16
2022-11-24T23:21:24.839Z,8.12
2022-11-24T23:23:52.282Z,8.16
2022-11-24T23:26:25.014Z,8.14
2022-11-24T23:28:51.778Z,8.17
2022-11-24T23:31:21.478Z,8.16
2022-11-24T23:33:48.102Z,8.09
2022-11-24T23:36:16.967Z,8.16
2022-11-24T23:38:43.883Z,8.17
2022-11-24T23:41:16.118Z,8.17
2022-11-24T23:43:43.675Z,8.20
2022-11-24T23:46:17.042Z,8.10
2022-11-24T23:48:44.607Z,8.16
2022-11-24T23:51:17.058Z,8.13
2022-11-24T23:53:44.374Z,8.23
2022-11-24T23:56:17.064Z,8.14
2022-11-24T23:58:43.945Z,8.09
